createdAt,value
2017-09-13T00:00:28.561Z,81.19
2017-09-13T00:02:56.502Z,81.72
2017-09-13T00:05:29.509Z,81.53
2017-09-13T00:07:57.534Z,81.50
2017-09-13T00:10:25.116Z,81.67
2017-09-13T00:12:52.695Z,81.98
2017-09-13T00:15:20.359Z,81.79
2017-09-13T00:17:47.933Z,81.73
2017-09-13T00:20:15.529Z,81.86
2017-09-13T00:22:43.124Z,81.82
2017-09-13T00:25:11.074Z,81.90
2017-09-13T00:27:38.668Z,81.81
2017-09-13T00:30:06.214Z,82.18
2017-09-13T00:32:33.827Z,81.87
2017-09-13T00:35:01.417Z,81.99
2017-09-13T00:37:28.971Z,81.99
2017-09-13T00:39:56.534Z,81.80
2017-09-13T00:42:24.692Z,81.95
2017-09-13T00:44:52.257Z,81.89
2017-09-13T00:47:19.849Z,81.67
2017-09-13T00:49:47.441Z,81.81
2017-09-13T00:52:14.998Z,81.82
2017-09-13T00:54:42.568Z,81.81
2017-09-13T00:57:10.143Z,81.73
2017-09-13T00:59:37.713Z,81.66
2017-09-13T01:02:06.676Z,81.60
2017-09-13T01:04:34.212Z,81.81
2017-09-13T01:07:01.806Z,82.07
2017-09-13T01:09:30.187Z,82.38
2017-09-13T01:11:58.119Z,82.18
2017-09-13T01:14:25.710Z,82.39
2017-09-13T01:16:53.259Z,82.32
2017-09-13T01:19:20.843Z,82.83
2017-09-13T01:21:48.416Z,82.62
2017-09-13T01:24:16.037Z,82.78
2017-09-13T01:26:43.624Z,82.92
2017-09-13T01:29:11.487Z,82.90
2017-09-13T01:31:39.055Z,83.03
2017-09-13T01:34:06.627Z,82.98
2017-09-13T01:36:34.271Z,83.06
2017-09-13T01:39:01.827Z,83.23
2017-09-13T01:41:29.411Z,83.41
2017-09-13T01:43:56.989Z,83.20
2017-09-13T01:46:24.865Z,83.14
2017-09-13T01:48:52.433Z,83.49
2017-09-13T01:51:20.007Z,83.61
2017-09-13T01:53:47.596Z,83.53
2017-09-13T01:56:15.196Z,83.62
2017-09-13T01:58:43.391Z,83.61
2017-09-13T02:01:11.061Z,83.39
2017-09-13T02:03:38.634Z,83.78
2017-09-13T02:06:06.231Z,83.74
2017-09-13T02:08:33.770Z,84.05
2017-09-13T02:11:01.365Z,84.03
2017-09-13T02:13:28.938Z,84.40
2017-09-13T02:15:56.497Z,84.24
2017-09-13T02:18:24.121Z,84.18
2017-09-13T02:20:51.693Z,84.23
2017-09-13T02:23:20.089Z,84.61
2017-09-13T02:25:47.652Z,84.34
2017-09-13T02:28:15.337Z,84.60
2017-09-13T02:30:42.889Z,84.84
2017-09-13T02:33:10.453Z,84.80
2017-09-13T02:35:38.424Z,84.82
2017-09-13T02:38:06.003Z,84.91
2017-09-13T02:40:33.581Z,84.96
2017-09-13T02:43:01.123Z,85.17
2017-09-13T02:45:28.677Z,84.94
2017-09-13T02:47:56.253Z,85.22
2017-09-13T02:50:23.838Z,85.11
2017-09-13T02:52:51.427Z,85.50
2017-09-13T02:55:19.026Z,85.18
2017-09-13T02:57:46.960Z,85.36
2017-09-13T03:00:14.519Z,85.18
2017-09-13T03:02:42.966Z,85.24
2017-09-13T03:05:10.578Z,85.08
2017-09-13T03:07:38.162Z,84.96
2017-09-13T03:10:05.741Z,84.83
2017-09-13T03:12:33.297Z,84.79
2017-09-13T03:15:01.216Z,84.93
2017-09-13T03:17:28.795Z,85.04
2017-09-13T03:19:56.445Z,84.73
2017-09-13T03:22:24.546Z,84.74
2017-09-13T03:24:52.106Z,84.71
2017-09-13T03:27:19.707Z,84.44
2017-09-13T03:29:47.270Z,84.50
2017-09-13T03:32:15.277Z,84.77
2017-09-13T03:34:42.851Z,84.82
2017-09-13T03:37:10.461Z,84.53
2017-09-13T03:39:38.050Z,84.64
2017-09-13T03:42:05.648Z,84.72
2017-09-13T03:44:36.281Z,84.81
2017-09-13T03:47:04.330Z,84.60
2017-09-13T03:49:31.893Z,84.78
2017-09-13T03:51:59.475Z,84.89
2017-09-13T03:54:28.285Z,84.88
2017-09-13T03:56:56.742Z,85.17
2017-09-13T03:59:24.303Z,85.14
2017-09-13T04:01:51.986Z,85.27
2017-09-13T04:04:19.582Z,85.22
2017-09-13T04:06:47.138Z,85.61
2017-09-13T04:09:15.276Z,85.20
2017-09-13T04:11:42.843Z,85.57
2017-09-13T04:14:11.624Z,85.37
2017-09-13T04:16:40.431Z,85.52
2017-09-13T04:19:08.758Z,85.32
2017-09-13T04:21:36.334Z,85.39
2017-09-13T04:24:04.014Z,85.29
2017-09-13T04:26:31.599Z,84.80
2017-09-13T04:28:59.179Z,85.39
2017-09-13T04:31:26.772Z,85.91
2017-09-13T04:33:54.335Z,85.77
2017-09-13T04:36:22.263Z,85.59
2017-09-13T04:38:49.797Z,85.86
2017-09-13T04:41:17.378Z,85.90
2017-09-13T04:43:48.685Z,85.76
2017-09-13T04:46:16.283Z,85.81
2017-09-13T04:48:43.876Z,85.42
2017-09-13T04:51:11.466Z,85.22
2017-09-13T04:53:39.063Z,85.43
2017-09-13T04:56:06.633Z,85.03
2017-09-13T04:58:35.810Z,85.21
2017-09-13T05:01:03.374Z,85.13
2017-09-13T05:03:32.015Z,85.36
2017-09-13T05:05:59.632Z,84.78
2017-09-13T05:08:27.218Z,83.84
2017-09-13T05:10:55.678Z,83.35
2017-09-13T05:13:24.520Z,83.90
2017-09-13T05:15:52.884Z,83.87
2017-09-13T05:18:20.470Z,84.26
2017-09-13T05:20:48.038Z,83.94
2017-09-13T05:23:15.620Z,83.91
2017-09-13T05:25:43.200Z,84.39
2017-09-13T05:28:11.161Z,84.05
2017-09-13T05:30:38.743Z,84.16
2017-09-13T05:33:06.316Z,84.14
2017-09-13T05:35:33.926Z,84.01
2017-09-13T05:38:01.498Z,83.57
2017-09-13T05:40:29.199Z,83.78
2017-09-13T05:42:56.767Z,82.83
2017-09-13T05:45:26.199Z,82.54
2017-09-13T05:47:53.761Z,82.15
2017-09-13T05:50:21.328Z,82.28
2017-09-13T05:52:48.922Z,81.85
2017-09-13T05:55:16.500Z,80.69
2017-09-13T05:57:44.103Z,80.25
2017-09-13T06:00:11.650Z,78.98
2017-09-13T06:02:39.525Z,79.50
2017-09-13T06:05:07.173Z,80.00
2017-09-13T06:07:34.797Z,80.33
2017-09-13T06:10:02.454Z,79.80
2017-09-13T06:12:30.178Z,81.08
2017-09-13T06:14:58.147Z,80.56
2017-09-13T06:17:26.130Z,80.78
2017-09-13T06:19:53.761Z,79.83
2017-09-13T06:22:21.312Z,79.35
2017-09-13T06:24:48.902Z,79.63
2017-09-13T06:27:16.479Z,78.85
2017-09-13T06:29:44.106Z,79.52
2017-09-13T06:32:11.692Z,78.87
2017-09-13T06:34:39.302Z,78.29
2017-09-13T06:37:06.884Z,77.80
2017-09-13T06:39:34.792Z,77.68
2017-09-13T06:42:02.368Z,78.72
2017-09-13T06:44:30.060Z,77.51
2017-09-13T06:46:57.636Z,78.02
2017-09-13T06:49:25.311Z,78.00
2017-09-13T06:51:53.383Z,77.94
2017-09-13T06:54:20.964Z,76.87
2017-09-13T06:56:48.648Z,76.10
2017-09-13T06:59:16.238Z,78.03
2017-09-13T07:01:44.257Z,76.53
2017-09-13T07:04:11.834Z,76.01
2017-09-13T07:06:39.416Z,76.34
2017-09-13T07:09:07.069Z,76.35
2017-09-13T07:11:34.677Z,76.70
2017-09-13T07:14:02.281Z,76.85
2017-09-13T07:16:29.893Z,75.64
2017-09-13T07:18:57.479Z,75.99
2017-09-13T07:21:25.061Z,75.83
2017-09-13T07:23:53.007Z,74.75
2017-09-13T07:26:20.620Z,74.25
2017-09-13T07:28:48.181Z,74.45
2017-09-13T07:31:15.821Z,74.29
2017-09-13T07:33:43.372Z,74.00
2017-09-13T07:36:11.195Z,74.17
2017-09-13T07:38:38.806Z,73.44
2017-09-13T07:41:06.410Z,73.53
2017-09-13T07:43:33.980Z,74.10
2017-09-13T07:46:01.705Z,72.79
2017-09-13T07:48:29.288Z,72.91
2017-09-13T07:50:57.662Z,73.01
2017-09-13T07:53:25.257Z,72.41
2017-09-13T07:55:52.830Z,72.62
2017-09-13T07:58:20.426Z,72.21
2017-09-13T08:00:48.009Z,70.56
2017-09-13T08:03:15.620Z,71.73
2017-09-13T08:05:43.197Z,70.73
2017-09-13T08:08:11.326Z,70.70
2017-09-13T08:10:38.923Z,70.39
2017-09-13T08:13:06.512Z,69.52
2017-09-13T08:15:34.080Z,68.68
2017-09-13T08:18:01.686Z,68.79
2017-09-13T08:20:29.279Z,68.31
2017-09-13T08:22:56.840Z,67.62
2017-09-13T08:25:24.441Z,68.51
2017-09-13T08:27:52.047Z,66.86
2017-09-13T08:30:20.498Z,66.73
2017-09-13T08:32:48.111Z,65.54
2017-09-13T08:35:15.698Z,65.23
2017-09-13T08:37:43.342Z,65.02
2017-09-13T08:40:11.010Z,67.32
2017-09-13T08:42:38.658Z,68.80
2017-09-13T08:45:06.222Z,70.90
2017-09-13T08:47:33.828Z,71.99
2017-09-13T08:50:01.413Z,74.29
2017-09-13T08:52:29.319Z,73.73
2017-09-13T08:54:57.823Z,74.27
2017-09-13T08:57:25.435Z,75.01
2017-09-13T08:59:53.055Z,74.87
2017-09-13T09:02:20.649Z,74.33
2017-09-13T09:04:48.280Z,74.19
2017-09-13T09:07:16.083Z,74.64
2017-09-13T09:09:43.692Z,74.68
2017-09-13T09:12:11.304Z,75.76
2017-09-13T09:14:38.925Z,75.71
2017-09-13T09:17:11.843Z,76.08
2017-09-13T09:19:40.010Z,77.24
2017-09-13T09:22:07.601Z,77.41
2017-09-13T09:24:35.199Z,78.18
2017-09-13T09:27:02.802Z,78.72
2017-09-13T09:29:31.511Z,77.70
2017-09-13T09:31:59.553Z,77.01
2017-09-13T09:34:27.212Z,78.37
2017-09-13T09:36:54.854Z,77.33
2017-09-13T09:39:22.470Z,78.03
2017-09-13T09:41:50.155Z,78.28
2017-09-13T09:44:17.749Z,78.64
2017-09-13T09:46:45.882Z,78.59
2017-09-13T09:49:13.502Z,77.99
2017-09-13T09:51:41.105Z,78.44
2017-09-13T09:54:08.759Z,76.29
2017-09-13T09:56:36.381Z,77.61
2017-09-13T09:59:03.984Z,76.63
2017-09-13T10:01:31.588Z,73.67
2017-09-13T10:03:59.178Z,73.68
2017-09-13T10:06:26.780Z,74.49
2017-09-13T10:08:54.711Z,73.99
2017-09-13T10:11:22.302Z,75.13
2017-09-13T10:13:49.880Z,75.06
2017-09-13T10:16:17.516Z,75.22
2017-09-13T10:18:45.111Z,74.62
2017-09-13T10:21:12.813Z,73.53
2017-09-13T10:23:40.401Z,74.32
2017-09-13T10:26:08.019Z,75.75
2017-09-13T10:28:35.613Z,75.46
2017-09-13T10:31:03.561Z,74.70
2017-09-13T10:33:31.176Z,75.67
2017-09-13T10:35:58.792Z,74.85
2017-09-13T10:38:26.380Z,73.79
2017-09-13T10:40:54.065Z,72.70
2017-09-13T10:43:21.713Z,72.78
2017-09-13T10:45:49.309Z,72.48
2017-09-13T10:48:16.921Z,71.78
2017-09-13T10:50:44.569Z,72.98
2017-09-13T10:53:12.535Z,72.41
2017-09-13T10:55:40.129Z,73.06
2017-09-13T10:58:07.745Z,73.00
2017-09-13T11:00:35.540Z,74.12
2017-09-13T11:03:04.632Z,75.40
2017-09-13T11:05:32.218Z,76.11
2017-09-13T11:07:59.790Z,75.11
2017-09-13T11:10:27.395Z,75.27
2017-09-13T11:12:55.080Z,74.63
2017-09-13T11:15:23.032Z,75.03
2017-09-13T11:17:50.620Z,76.55
2017-09-13T11:20:18.232Z,76.69
2017-09-13T11:22:46.227Z,76.36
2017-09-13T11:25:13.795Z,77.34
2017-09-13T11:27:41.401Z,76.47
2017-09-13T11:30:09.003Z,75.09
2017-09-13T11:32:38.184Z,75.01
2017-09-13T11:35:05.974Z,74.79
2017-09-13T11:37:33.599Z,73.81
2017-09-13T11:40:01.215Z,73.34
2017-09-13T11:42:28.777Z,73.82
2017-09-13T11:44:56.364Z,73.56
2017-09-13T11:47:24.178Z,72.87
2017-09-13T11:49:52.123Z,73.26
2017-09-13T11:52:20.531Z,72.80
2017-09-13T11:54:48.191Z,72.18
2017-09-13T11:57:15.881Z,71.20
2017-09-13T11:59:43.466Z,71.19
2017-09-13T12:02:11.085Z,69.37
2017-09-13T12:04:38.835Z,70.89
2017-09-13T12:07:06.411Z,71.87
2017-09-13T12:09:33.994Z,69.47
2017-09-13T12:12:01.959Z,69.68
2017-09-13T12:14:29.540Z,70.26
2017-09-13T12:16:57.127Z,68.79
2017-09-13T12:19:24.769Z,68.75
2017-09-13T12:21:52.377Z,69.62
2017-09-13T12:24:20.016Z,68.03
2017-09-13T12:26:47.607Z,67.69
2017-09-13T12:29:15.647Z,68.03
2017-09-13T12:31:43.233Z,68.02
2017-09-13T12:34:10.990Z,68.01
2017-09-13T12:36:38.615Z,67.00
2017-09-13T12:39:07.274Z,68.15
2017-09-13T12:41:34.890Z,68.38
2017-09-13T12:44:02.472Z,66.72
2017-09-13T12:46:30.401Z,66.36
2017-09-13T12:48:57.989Z,66.17
2017-09-13T12:51:25.571Z,67.33
2017-09-13T12:53:53.218Z,66.42
2017-09-13T12:56:20.857Z,65.23
2017-09-13T12:58:49.157Z,65.99
2017-09-13T13:01:16.767Z,66.00
2017-09-13T13:03:44.412Z,65.26
2017-09-13T13:06:12.006Z,66.13
2017-09-13T13:08:39.624Z,64.65
2017-09-13T13:11:07.258Z,66.32
2017-09-13T13:13:34.875Z,64.74
2017-09-13T13:16:02.525Z,64.97
2017-09-13T13:18:30.133Z,65.69
2017-09-13T13:21:00.806Z,64.89
2017-09-13T13:23:28.414Z,65.27
2017-09-13T13:25:56.062Z,64.80
2017-09-13T13:28:23.657Z,64.03
2017-09-13T13:30:51.341Z,65.34
2017-09-13T13:33:18.944Z,65.55
2017-09-13T13:35:47.040Z,66.64
2017-09-13T13:38:14.696Z,65.68
2017-09-13T13:40:42.290Z,66.88
2017-09-13T13:43:09.926Z,66.91
2017-09-13T13:45:37.521Z,67.79
2017-09-13T13:48:05.175Z,67.04
2017-09-13T13:50:32.793Z,67.61
2017-09-13T13:53:00.511Z,68.00
2017-09-13T13:55:28.109Z,68.89
2017-09-13T13:57:55.712Z,69.81
2017-09-13T14:00:23.359Z,69.59
2017-09-13T14:02:51.353Z,69.53
2017-09-13T14:05:18.925Z,71.12
2017-09-13T14:07:46.567Z,71.78
2017-09-13T14:10:14.243Z,72.10
2017-09-13T14:12:41.896Z,72.49
2017-09-13T14:15:09.522Z,71.85
2017-09-13T14:17:37.137Z,72.13
2017-09-13T14:20:04.779Z,71.89
2017-09-13T14:22:32.399Z,72.18
2017-09-13T14:25:00.018Z,72.37
2017-09-13T14:27:27.624Z,72.66
2017-09-13T14:29:55.202Z,72.42
2017-09-13T14:32:22.801Z,72.89
2017-09-13T14:34:50.418Z,72.83
2017-09-13T14:37:18.073Z,72.45
2017-09-13T14:39:45.672Z,72.63
2017-09-13T14:42:13.303Z,73.39
2017-09-13T14:44:40.915Z,73.42
2017-09-13T14:47:08.557Z,73.62
2017-09-13T14:49:36.162Z,74.23
2017-09-13T14:52:04.178Z,74.60
2017-09-13T14:54:31.786Z,73.76
2017-09-13T14:56:59.438Z,73.46
2017-09-13T14:59:27.071Z,73.35
2017-09-13T15:01:54.844Z,73.07
2017-09-13T15:04:22.472Z,73.62
2017-09-13T15:06:50.071Z,73.44
2017-09-13T15:09:17.714Z,73.74
2017-09-13T15:11:45.380Z,73.42
2017-09-13T15:14:13.357Z,73.19
2017-09-13T15:16:41.132Z,73.25
2017-09-13T15:19:08.743Z,71.99
2017-09-13T15:21:36.377Z,72.73
2017-09-13T15:24:03.989Z,73.10
2017-09-13T15:26:31.644Z,73.00
2017-09-13T15:28:59.608Z,72.68
2017-09-13T15:31:27.202Z,73.44
2017-09-13T15:33:54.776Z,73.05
2017-09-13T15:36:22.400Z,73.21
2017-09-13T15:38:50.243Z,73.18
2017-09-13T15:41:18.469Z,73.34
2017-09-13T15:43:46.128Z,74.18
2017-09-13T15:46:13.714Z,75.40
2017-09-13T15:48:41.364Z,75.99
2017-09-13T15:51:09.097Z,77.57
2017-09-13T15:53:37.939Z,78.36
2017-09-13T15:56:05.703Z,79.42
2017-09-13T15:58:33.326Z,80.66
2017-09-13T16:01:00.906Z,80.92
2017-09-13T16:03:28.535Z,81.18
2017-09-13T16:05:56.132Z,81.59
2017-09-13T16:08:24.074Z,82.09
2017-09-13T16:10:51.692Z,82.99
2017-09-13T16:13:19.291Z,83.65
2017-09-13T16:15:46.911Z,83.21
2017-09-13T16:18:14.538Z,83.46
2017-09-13T16:20:42.242Z,83.73
2017-09-13T16:23:09.859Z,83.79
2017-09-13T16:25:37.797Z,84.16
2017-09-13T16:28:05.443Z,84.26
2017-09-13T16:30:33.143Z,83.88
2017-09-13T16:33:00.808Z,84.39
2017-09-13T16:35:28.468Z,83.82
2017-09-13T16:37:56.072Z,83.53
2017-09-13T16:40:23.715Z,82.85
2017-09-13T16:42:51.355Z,82.98
2017-09-13T16:45:18.944Z,82.92
2017-09-13T16:47:46.754Z,82.61
2017-09-13T16:50:19.691Z,82.78
2017-09-13T16:52:47.656Z,82.98
2017-09-13T16:55:15.273Z,82.65
2017-09-13T16:57:42.837Z,82.61
2017-09-13T17:00:10.453Z,82.71
2017-09-13T17:02:38.051Z,82.59
2017-09-13T17:05:05.659Z,82.30
2017-09-13T17:07:33.292Z,82.54
2017-09-13T17:10:00.931Z,82.15
2017-09-13T17:12:28.476Z,82.11
2017-09-13T17:14:56.098Z,82.02
2017-09-13T17:17:23.710Z,81.75
2017-09-13T17:19:51.698Z,81.41
2017-09-13T17:22:19.456Z,81.10
2017-09-13T17:24:46.990Z,80.65
2017-09-13T17:27:14.618Z,80.78
2017-09-13T17:29:42.144Z,80.09
2017-09-13T17:32:10.768Z,80.25
2017-09-13T17:34:38.301Z,79.98
2017-09-13T17:37:05.924Z,79.55
2017-09-13T17:39:33.515Z,79.19
2017-09-13T17:42:01.512Z,78.45
2017-09-13T17:44:30.255Z,78.22
2017-09-13T17:46:57.797Z,78.21
2017-09-13T17:49:25.406Z,77.64
2017-09-13T17:51:53.006Z,77.32
2017-09-13T17:54:20.606Z,77.29
2017-09-13T17:56:48.184Z,77.51
2017-09-13T17:59:16.206Z,77.70
2017-09-13T18:01:43.774Z,77.93
2017-09-13T18:04:11.462Z,77.52
2017-09-13T18:06:39.080Z,76.81
2017-09-13T18:09:06.678Z,76.41
2017-09-13T18:11:36.765Z,76.19
2017-09-13T18:14:04.409Z,76.08
2017-09-13T18:16:32.479Z,75.68
2017-09-13T18:19:00.074Z,75.40
2017-09-13T18:21:27.724Z,75.46
2017-09-13T18:23:55.659Z,75.39
2017-09-13T18:28:57.191Z,75.19
2017-09-13T18:31:24.775Z,75.27
2017-09-13T18:33:52.375Z,75.26
2017-09-13T18:36:20.015Z,74.83
2017-09-13T18:38:52.623Z,74.80
2017-09-13T18:41:20.196Z,74.93
2017-09-13T18:43:48.174Z,74.88
2017-09-13T18:46:15.741Z,74.73
2017-09-13T18:48:43.351Z,74.31
2017-09-13T18:51:11.073Z,74.13
2017-09-13T18:53:38.704Z,74.07
2017-09-13T18:56:06.273Z,73.35
2017-09-13T18:58:33.852Z,72.94
2017-09-13T19:01:01.824Z,72.97
2017-09-13T19:03:29.414Z,73.00
2017-09-13T19:05:57.006Z,72.90
2017-09-13T19:08:24.618Z,73.22
2017-09-13T19:10:52.329Z,73.41
2017-09-13T19:13:19.949Z,73.42
2017-09-13T19:15:50.283Z,73.05
2017-09-13T19:18:17.897Z,72.98
2017-09-13T19:20:45.515Z,73.19
2017-09-13T19:23:13.470Z,73.20
2017-09-13T19:25:41.066Z,73.33
2017-09-13T19:28:08.660Z,73.41
2017-09-13T19:30:36.288Z,73.19
2017-09-13T19:33:03.915Z,73.54
2017-09-13T19:35:31.516Z,73.70
2017-09-13T19:37:59.154Z,72.85
2017-09-13T19:40:26.781Z,72.76
2017-09-13T19:42:54.376Z,73.01
2017-09-13T19:45:22.267Z,73.03
2017-09-13T19:47:49.828Z,73.16
2017-09-13T19:50:17.421Z,73.24
2017-09-13T19:52:46.458Z,73.79
2017-09-13T19:55:14.045Z,73.81
2017-09-13T19:57:41.658Z,73.70
2017-09-13T20:00:09.232Z,73.83
2017-09-13T20:02:37.172Z,74.06
2017-09-13T20:05:04.831Z,73.99
2017-09-13T20:07:32.492Z,74.25
2017-09-13T20:10:00.199Z,74.41
2017-09-13T20:12:27.835Z,74.31
2017-09-13T20:14:55.428Z,74.12
2017-09-13T20:17:31.878Z,74.36
2017-09-13T20:19:59.492Z,74.31
2017-09-13T20:22:27.115Z,74.34
2017-09-13T20:24:54.827Z,74.38
2017-09-13T20:27:22.437Z,74.22
2017-09-13T20:29:50.005Z,73.66
2017-09-13T20:32:17.740Z,73.51
2017-09-13T20:34:45.325Z,73.09
2017-09-13T20:37:13.046Z,73.22
2017-09-13T20:39:40.603Z,73.19
2017-09-13T20:42:08.584Z,72.97
2017-09-13T20:44:36.302Z,72.85
2017-09-13T20:47:04.199Z,72.87
2017-09-13T20:49:31.827Z,73.21
2017-09-13T20:51:59.410Z,72.97
2017-09-13T20:54:27.073Z,72.66
2017-09-13T20:56:54.654Z,72.83
2017-09-13T20:59:22.400Z,72.93
2017-09-13T21:01:49.964Z,73.10
2017-09-13T21:04:17.553Z,73.02
2017-09-13T21:06:45.172Z,73.05
2017-09-13T21:09:12.795Z,72.81
2017-09-13T21:11:40.543Z,72.94
2017-09-13T21:14:08.518Z,72.75
2017-09-13T21:16:36.243Z,72.79
2017-09-13T21:19:03.811Z,72.30
2017-09-13T21:21:31.537Z,72.40
2017-09-13T21:23:59.107Z,72.21
2017-09-13T21:26:26.745Z,72.05
2017-09-13T21:28:54.326Z,71.85
2017-09-13T21:31:22.051Z,71.74
2017-09-13T21:33:49.726Z,71.89
2017-09-13T21:36:17.837Z,71.58
2017-09-13T21:38:46.153Z,71.12
2017-09-13T21:41:15.708Z,71.16
2017-09-13T21:43:43.279Z,70.80
2017-09-13T21:46:10.812Z,70.92
2017-09-13T21:48:39.068Z,71.08
2017-09-13T21:51:06.651Z,71.23
2017-09-13T21:53:34.252Z,71.34
2017-09-13T21:56:01.809Z,71.18
2017-09-13T21:58:29.429Z,71.29
2017-09-13T22:00:56.996Z,71.23
2017-09-13T22:03:24.851Z,71.02
2017-09-13T22:05:52.434Z,71.06
2017-09-13T22:08:20.266Z,70.83
2017-09-13T22:10:47.848Z,71.10
2017-09-13T22:13:15.441Z,71.15
2017-09-13T22:15:43.017Z,71.54
2017-09-13T22:18:10.609Z,71.10
2017-09-13T22:20:38.370Z,71.06
2017-09-13T22:23:05.914Z,70.99
2017-09-13T22:25:33.898Z,71.00
2017-09-13T22:28:01.479Z,70.99
2017-09-13T22:30:29.086Z,70.67
2017-09-13T22:32:56.743Z,70.93
2017-09-13T22:35:24.321Z,70.69
2017-09-13T22:37:52.805Z,70.37
2017-09-13T22:40:20.391Z,70.55
2017-09-13T22:42:48.443Z,70.72
2017-09-13T22:45:16.061Z,70.87
2017-09-13T22:47:43.632Z,70.32
2017-09-13T22:50:11.235Z,69.64
2017-09-13T22:52:38.812Z,69.70
2017-09-13T22:55:06.388Z,69.61
2017-09-13T22:57:34.111Z,69.45
2017-09-13T23:00:01.677Z,69.63
2017-09-13T23:02:29.235Z,69.61
2017-09-13T23:04:57.192Z,69.74
2017-09-13T23:07:24.758Z,69.74
2017-09-13T23:09:52.446Z,69.95
2017-09-13T23:12:20.025Z,69.81
2017-09-13T23:14:47.601Z,70.14
2017-09-13T23:17:15.187Z,69.74
2017-09-13T23:19:42.816Z,69.47
2017-09-13T23:22:10.693Z,69.66
2017-09-13T23:24:38.293Z,69.96
2017-09-13T23:27:05.886Z,70.14
2017-09-13T23:29:33.488Z,70.12
2017-09-13T23:32:01.388Z,69.95
2017-09-13T23:34:28.977Z,69.91
2017-09-13T23:36:56.547Z,69.84
2017-09-13T23:39:24.143Z,69.70
2017-09-13T23:41:51.721Z,69.77
2017-09-13T23:44:19.720Z,69.33
2017-09-13T23:46:47.322Z,69.57
2017-09-13T23:49:15.082Z,69.66
2017-09-13T23:54:18.196Z,69.51
2017-09-13T23:56:45.806Z,69.20
2017-09-13T23:59:13.383Z,68.86
